Time;durP1;ratioP1;P1;durP2;ratioP2;P2;SDS_P1;SDS_P2;PMS_P1;PMS_P2;Temp;Humidity;BMP_temperature;BMP_pressure;BME280_temperature;BME280_humidity;BME280_pressure;Samples;Min_cycle;Max_cycle;Signal;HPM_P1;HPM_P2
2024/04/08 00:00:44;;;;;;;14.05;2.58;;;27.40;28.90;;;;;;5127007;27;20113;-50
2024/04/08 00:03:10;;;;;;;12.57;2.70;;;27.50;29.00;;;;;;5128659;27;20099;-48
2024/04/08 00:05:37;;;;;;;7.20;2.58;;;27.10;29.10;;;;;;5127028;27;20064;-46
2024/04/08 00:11:07;;;;;;;7.77;2.33;;;27.30;29.50;;;;;;5502650;25;20492;-46
2024/04/08 00:13:38;;;;;;;8.90;2.78;;;27.40;28.90;;;;;;5500117;25;20519;-47
2024/04/08 00:16:08;;;;;;;6.63;1.95;;;27.30;28.50;;;;;;5493601;26;20122;-48
2024/04/08 00:18:35;;;;;;;6.35;2.22;;;27.20;29.20;;;;;;5497138;26;20615;-49
2024/04/08 00:21:05;;;;;;;19.35;3.10;;;27.10;28.80;;;;;;5496494;26;20157;-47
2024/04/08 00:23:32;;;;;;;12.68;2.90;;;27.10;28.90;;;;;;5496364;26;20101;-48
2024/04/08 00:26:05;;;;;;;10.50;2.80;;;27.00;28.80;;;;;;5497016;26;20067;-46
2024/04/08 00:28:39;;;;;;;10.50;2.63;;;27.00;29.60;;;;;;5491136;26;20074;-46
2024/04/08 00:31:10;;;;;;;10.20;2.47;;;27.10;29.30;;;;;;5499519;25;20109;-46
2024/04/08 00:33:37;;;;;;;9.15;2.38;;;27.20;29.40;;;;;;5497809;26;20160;-50
2024/04/08 00:36:04;;;;;;;5.57;2.30;;;27.10;29.70;;;;;;5493868;26;20072;-50
2024/04/08 00:38:30;;;;;;;8.20;2.10;;;26.80;30.00;;;;;;5498162;26;20066;-50
2024/04/08 00:41:03;;;;;;;8.00;2.22;;;26.60;30.00;;;;;;5500079;26;20176;-48
2024/04/08 00:43:30;;;;;;;6.45;2.13;;;26.50;30.00;;;;;;5497982;26;20071;-46
2024/04/08 00:45:59;;;;;;;12.15;2.88;;;26.20;30.40;;;;;;5498148;26;20151;-47
2024/04/08 00:48:26;;;;;;;14.35;2.88;;;26.00;30.40;;;;;;5496839;26;20093;-50
2024/04/08 00:50:55;;;;;;;8.88;2.78;;;25.70;30.70;;;;;;5497561;26;20071;-58
2024/04/08 00:53:23;;;;;;;8.60;2.28;;;25.70;30.80;;;;;;5492647;26;20120;-52
2024/04/08 00:55:51;;;;;;;8.20;2.25;;;25.50;30.90;;;;;;5499178;26;20098;-54
2024/04/08 00:58:18;;;;;;;10.05;2.17;;;25.30;31.00;;;;;;5493408;26;20089;-51
2024/04/08 01:00:45;;;;;;;9.90;2.65;;;25.40;31.40;;;;;;5498589;26;20412;-52
2024/04/08 01:03:12;;;;;;;6.72;2.33;;;25.50;31.30;;;;;;5488320;26;20063;-54
2024/04/08 01:05:40;;;;;;;8.55;2.30;;;25.60;31.20;;;;;;5492421;26;20086;-52
2024/04/08 01:08:07;;;;;;;6.45;2.28;;;25.60;31.00;;;;;;5482446;26;20067;-49
2024/04/08 01:10:34;;;;;;;11.55;2.33;;;25.70;30.40;;;;;;5491534;26;21261;-53
2024/04/08 01:13:01;;;;;;;7.50;2.22;;;25.70;30.80;;;;;;5497215;26;20092;-51
2024/04/08 01:15:28;;;;;;;7.22;2.22;;;25.60;30.90;;;;;;5497169;26;20064;-48
2024/04/08 01:17:57;;;;;;;17.42;3.58;;;25.50;31.70;;;;;;5495867;26;20218;-50
2024/04/08 01:20:23;;;;;;;8.45;2.45;;;25.50;31.60;;;;;;5491343;26;20085;-56
2024/04/08 01:22:54;;;;;;;8.00;2.22;;;25.40;31.00;;;;;;5481976;26;20089;-54
2024/04/08 01:25:21;;;;;;;8.70;2.22;;;25.20;31.30;;;;;;5480464;26;20150;-51
2024/04/08 01:27:47;;;;;;;13.88;2.60;;;25.10;31.40;;;;;;5482805;26;22420;-49
2024/04/08 01:30:21;;;;;;;9.65;2.53;;;24.90;31.60;;;;;;5477996;26;20536;-47
2024/04/08 01:32:49;;;;;;;13.38;3.80;;;24.70;32.10;;;;;;5470164;26;20071;-57
2024/04/08 01:35:15;;;;;;;7.00;2.47;;;24.60;32.40;;;;;;5447682;26;20060;-50
2024/04/08 01:37:42;;;;;;;9.05;2.85;;;24.50;32.30;;;;;;5483310;26;20093;-51
2024/04/08 01:40:09;;;;;;;11.65;3.17;;;24.40;33.00;;;;;;5473802;26;20066;-47
2024/04/08 01:42:36;;;;;;;11.05;3.13;;;24.20;33.60;;;;;;5482519;26;20081;-46
2024/04/08 01:45:02;;;;;;;10.75;2.70;;;24.10;32.90;;;;;;5479356;26;20070;-49
2024/04/08 01:47:29;;;;;;;11.43;2.33;;;24.10;33.10;;;;;;5485174;26;20066;-46
2024/04/08 01:49:55;;;;;;;7.45;2.30;;;24.00;33.00;;;;;;5482386;26;20473;-48
2024/04/08 01:52:22;;;;;;;11.55;2.42;;;24.00;32.90;;;;;;5480337;26;20107;-46
2024/04/08 01:54:48;;;;;;;7.90;2.33;;;23.80;33.40;;;;;;5477535;26;20103;-49
2024/04/08 01:57:15;;;;;;;9.68;2.60;;;23.70;34.00;;;;;;5477960;26;20231;-57
2024/04/08 01:59:41;;;;;;;9.10;3.10;;;23.60;33.80;;;;;;5469607;26;20066;-47
2024/04/08 02:02:07;;;;;;;15.30;2.65;;;23.50;33.90;;;;;;5484138;26;20063;-46
2024/04/08 02:04:34;;;;;;;12.95;3.47;;;23.40;34.40;;;;;;5483712;26;20063;-51
2024/04/08 02:07:00;;;;;;;10.48;3.15;;;23.30;34.20;;;;;;5478353;26;20062;-46
2024/04/08 02:09:27;;;;;;;10.27;3.17;;;23.20;34.90;;;;;;5467918;26;20147;-46
2024/04/08 02:11:53;;;;;;;9.80;2.10;;;23.10;34.50;;;;;;5469782;26;20090;-45
2024/04/08 02:14:20;;;;;;;11.10;3.10;;;23.00;35.20;;;;;;5476448;26;20066;-47
2024/04/08 02:16:46;;;;;;;9.88;3.13;;;22.90;35.50;;;;;;5481220;26;20103;-49
2024/04/08 02:19:13;;;;;;;16.83;3.78;;;22.80;35.70;;;;;;5477683;26;20066;-48
2024/04/08 02:21:39;;;;;;;14.95;3.60;;;22.70;35.20;;;;;;5482164;26;20071;-47
2024/04/08 02:24:07;;;;;;;12.00;3.72;;;22.70;35.80;;;;;;5477131;26;20596;-46
2024/04/08 02:26:34;;;;;;;12.68;3.75;;;22.50;36.10;;;;;;5479288;26;20113;-46
2024/04/08 02:29:00;;;;;;;14.93;4.93;;;22.40;36.30;;;;;;5476853;26;20525;-51
2024/04/08 02:31:27;;;;;;;10.98;4.05;;;22.20;36.50;;;;;;5483577;26;20092;-47
2024/04/08 02:33:53;;;;;;;13.63;5.03;;;22.10;36.80;;;;;;5482650;26;20067;-44
2024/04/08 02:36:20;;;;;;;14.07;4.55;;;22.10;37.00;;;;;;5476799;26;20088;-57
2024/04/08 02:38:46;;;;;;;20.80;4.50;;;22.00;37.00;;;;;;5470085;26;20067;-49
2024/04/08 02:41:14;;;;;;;8.95;2.75;;;22.00;36.60;;;;;;5478708;26;20067;-48
2024/04/08 02:43:40;;;;;;;11.82;3.38;;;22.00;36.50;;;;;;5482259;26;20177;-46
2024/04/08 02:46:07;;;;;;;20.27;3.20;;;21.90;36.60;;;;;;5477147;26;20067;-48
2024/04/08 02:48:33;;;;;;;12.38;3.80;;;21.90;36.80;;;;;;5482975;25;20067;-45
2024/04/08 02:51:00;;;;;;;13.80;3.70;;;21.80;37.20;;;;;;5479972;26;20151;-48
2024/04/08 02:53:27;;;;;;;16.00;4.30;;;21.80;37.00;;;;;;5480192;26;20078;-47
2024/04/08 02:56:01;;;;;;;15.02;5.20;;;21.70;36.90;;;;;;5479587;26;20497;-47
2024/04/08 02:58:27;;;;;;;24.30;5.95;;;21.60;37.30;;;;;;5466094;26;20070;-47
2024/04/08 03:00:54;;;;;;;15.05;6.03;;;21.60;38.00;;;;;;5482266;26;20089;-47
2024/04/08 03:03:20;;;;;;;21.50;5.53;;;21.40;38.30;;;;;;5475973;26;20553;-49
2024/04/08 03:05:46;;;;;;;21.52;5.13;;;21.30;38.60;;;;;;5479181;26;20067;-45
2024/04/08 03:08:13;;;;;;;14.60;4.68;;;21.20;39.20;;;;;;5478421;26;20123;-47
2024/04/08 03:10:39;;;;;;;16.38;4.85;;;21.10;39.70;;;;;;5472802;26;20143;-52
2024/04/08 03:13:07;;;;;;;22.52;5.65;;;21.00;39.10;;;;;;5473372;26;20063;-53
2024/04/08 03:15:33;;;;;;;15.90;5.95;;;20.90;39.10;;;;;;5477113;26;20062;-46
2024/04/08 03:17:59;;;;;;;23.98;8.05;;;20.90;39.10;;;;;;5482600;26;20524;-45
2024/04/08 03:20:26;;;;;;;16.52;6.82;;;20.90;39.40;;;;;;5482215;26;20194;-48
2024/04/08 03:22:52;;;;;;;12.80;6.22;;;20.80;39.20;;;;;;5458897;26;20151;-47
2024/04/08 03:25:20;;;;;;;16.77;6.10;;;20.80;39.20;;;;;;5477814;26;20090;-47
2024/04/08 03:27:46;;;;;;;14.57;6.13;;;20.70;38.50;;;;;;5479520;26;20062;-46
2024/04/08 03:30:13;;;;;;;17.77;9.20;;;20.60;39.30;;;;;;5477826;26;20075;-45
2024/04/08 03:32:39;;;;;;;26.23;12.15;;;20.60;39.40;;;;;;5482438;26;20150;-46
2024/04/08 03:35:06;;;;;;;25.63;13.25;;;20.50;39.80;;;;;;5482273;26;20089;-45
2024/04/08 03:37:33;;;;;;;24.05;13.10;;;20.40;40.80;;;;;;5476470;26;20093;-45
2024/04/08 03:39:59;;;;;;;24.00;12.85;;;20.30;39.60;;;;;;5480220;26;20408;-49
2024/04/08 03:42:26;;;;;;;23.45;11.63;;;20.30;40.60;;;;;;5473855;26;20508;-53
2024/04/08 03:44:54;;;;;;;24.75;10.10;;;20.20;40.30;;;;;;5478834;26;20063;-48
2024/04/08 03:47:20;;;;;;;18.05;7.85;;;20.20;41.10;;;;;;5479692;26;20063;-45
2024/04/08 03:49:51;;;;;;;26.38;8.48;;;20.10;41.00;;;;;;5480326;26;20524;-48
2024/04/08 03:52:17;;;;;;;18.95;6.60;;;20.10;41.60;;;;;;5473707;26;20063;-46
2024/04/08 03:54:44;;;;;;;16.15;6.30;;;20.00;41.30;;;;;;5480142;26;20093;-48
2024/04/08 03:57:10;;;;;;;15.68;6.32;;;19.90;41.10;;;;;;5477357;26;20094;-48
2024/04/08 03:59:37;;;;;;;20.40;6.85;;;19.90;43.00;;;;;;5479600;26;20082;-46
2024/04/08 04:02:03;;;;;;;20.48;6.75;;;19.80;41.50;;;;;;5469735;26;20075;-45
2024/04/08 04:04:30;;;;;;;18.75;6.65;;;19.70;41.70;;;;;;5479097;26;20074;-47
2024/04/08 04:06:56;;;;;;;25.60;6.10;;;19.70;41.90;;;;;;5474221;26;20111;-47
2024/04/08 04:09:23;;;;;;;18.73;6.13;;;19.70;41.60;;;;;;5476417;26;20067;-49
2024/04/08 04:11:49;;;;;;;12.98;5.20;;;19.70;41.80;;;;;;5477206;26;20083;-47
2024/04/08 04:14:16;;;;;;;21.50;5.63;;;19.60;42.30;;;;;;5472110;26;20218;-46
2024/04/08 04:16:42;;;;;;;19.17;5.40;;;19.50;42.00;;;;;;5480699;26;20059;-45
2024/04/08 04:19:09;;;;;;;21.15;5.00;;;19.40;42.40;;;;;;5474170;26;20363;-45
2024/04/08 04:21:35;;;;;;;25.10;4.90;;;19.40;42.40;;;;;;5476018;26;20067;-49
2024/04/08 04:24:02;;;;;;;18.63;4.45;;;19.40;41.90;;;;;;5475413;26;20063;-49
2024/04/08 04:26:28;;;;;;;21.65;3.75;;;19.40;43.10;;;;;;5475312;26;20063;-47
2024/04/08 04:28:55;;;;;;;15.88;3.90;;;19.40;44.30;;;;;;5479157;26;20200;-46
2024/04/08 04:31:21;;;;;;;13.68;3.60;;;19.40;44.60;;;;;;5478012;26;20114;-47
2024/04/08 04:33:47;;;;;;;14.40;3.53;;;19.50;45.00;;;;;;5473675;26;20477;-46
2024/04/08 04:36:14;;;;;;;15.43;3.97;;;19.40;47.30;;;;;;5477294;26;20067;-51
2024/04/08 04:38:40;;;;;;;23.63;4.53;;;19.40;48.40;;;;;;5475493;26;20075;-46
2024/04/08 04:41:07;;;;;;;12.38;3.55;;;19.40;49.10;;;;;;5479289;26;20066;-45
2024/04/08 04:43:34;;;;;;;10.20;3.00;;;19.40;49.90;;;;;;5475268;26;20186;-45
2024/04/08 04:46:01;;;;;;;14.20;3.53;;;19.30;50.10;;;;;;5473838;26;20099;-49
2024/04/08 04:48:27;;;;;;;18.58;3.78;;;19.30;51.00;;;;;;5474637;26;20071;-57
2024/04/08 04:50:54;;;;;;;18.60;3.88;;;19.20;52.20;;;;;;5476190;26;20063;-46
2024/04/08 04:53:21;;;;;;;18.50;3.60;;;19.10;52.50;;;;;;5475550;26;20529;-46
2024/04/08 04:55:54;;;;;;;13.05;3.67;;;19.10;53.50;;;;;;5475624;26;20493;-47
2024/04/08 04:58:21;;;;;;;20.40;3.20;;;19.20;53.40;;;;;;5481483;26;20085;-45
2024/04/08 05:00:49;;;;;;;19.20;7.15;;;19.10;53.30;;;;;;5474561;26;20059;-51
2024/04/08 05:03:19;;;;;;;11.13;4.15;;;19.10;53.50;;;;;;5483812;26;20067;-45
2024/04/08 05:05:56;;;;;;;10.77;3.50;;;18.90;54.30;;;;;;5450242;26;20099;-49
2024/04/08 05:08:23;;;;;;;23.67;6.57;;;18.80;55.10;;;;;;5483775;26;20066;-47
2024/04/08 05:10:50;;;;;;;19.88;5.28;;;18.80;55.10;;;;;;5482972;26;20093;-47
2024/04/08 05:13:18;;;;;;;11.65;3.95;;;18.70;55.60;;;;;;5485273;26;20233;-46
2024/04/08 05:15:58;;;;;;;15.65;3.22;;;18.70;55.90;;;;;;5484466;26;20103;-47
2024/04/08 05:18:25;;;;;;;13.50;4.10;;;18.80;55.80;;;;;;5484095;26;20063;-50
2024/04/08 05:20:51;;;;;;;31.92;4.30;;;18.70;55.80;;;;;;5482489;26;20093;-59
2024/04/08 05:23:21;;;;;;;18.33;3.67;;;18.70;56.30;;;;;;5477039;26;20064;-57
2024/04/08 05:25:48;;;;;;;29.15;4.18;;;19.90;55.50;;;;;;5473571;26;20062;-54
2024/04/08 05:28:15;;;;;;;17.08;4.53;;;20.70;53.70;;;;;;5474117;26;20104;-60
2024/04/08 05:30:41;;;;;;;12.85;4.25;;;20.90;53.60;;;;;;5484349;26;20103;-60
2024/04/08 05:33:08;;;;;;;15.85;4.43;;;21.10;52.60;;;;;;5484116;26;20067;-60
2024/04/08 05:35:35;;;;;;;13.23;3.58;;;21.20;52.70;;;;;;5478306;26;20089;-60
2024/04/08 05:38:02;;;;;;;10.25;3.55;;;21.40;52.20;;;;;;5484532;26;20124;-61
2024/04/08 05:40:28;;;;;;;20.27;3.40;;;21.50;51.70;;;;;;5432934;26;20143;-61
2024/04/08 05:42:55;;;;;;;14.35;3.28;;;21.80;51.20;;;;;;5477366;26;20407;-59
2024/04/08 05:45:21;;;;;;;12.82;3.47;;;21.70;51.20;;;;;;5481144;26;20067;-60
2024/04/08 05:47:54;;;;;;;10.82;2.50;;;21.60;51.70;;;;;;5477833;26;20063;-61
2024/04/08 05:50:23;;;;;;;11.82;3.05;;;21.70;51.60;;;;;;5484349;26;20063;-59
2024/04/08 05:52:51;;;;;;;15.20;2.83;;;21.70;51.60;;;;;;5483557;26;20096;-60
2024/04/08 05:55:17;;;;;;;9.57;2.30;;;21.50;51.90;;;;;;5484758;26;20155;-58
2024/04/08 05:57:44;;;;;;;8.63;2.45;;;21.10;52.70;;;;;;5482985;26;20187;-60
2024/04/08 06:00:11;;;;;;;8.40;2.70;;;20.90;52.40;;;;;;5482134;26;20085;-59
2024/04/08 06:02:40;;;;;;;8.45;2.45;;;20.70;52.80;;;;;;5482444;26;20063;-64
2024/04/08 06:05:08;;;;;;;11.05;2.65;;;20.70;53.50;;;;;;5478084;26;20070;-61
2024/04/08 06:07:35;;;;;;;10.27;2.38;;;20.70;53.20;;;;;;5477073;26;20063;-59
2024/04/08 06:10:01;;;;;;;6.55;2.10;;;20.70;53.40;;;;;;5481588;26;20063;-59
2024/04/08 06:12:27;;;;;;;11.75;2.50;;;20.40;53.00;;;;;;5483973;26;20172;-59
2024/04/08 06:14:54;;;;;;;11.20;2.65;;;20.00;53.80;;;;;;5483369;26;20074;-57
2024/04/08 06:17:21;;;;;;;8.50;2.53;;;19.70;54.40;;;;;;5483911;26;20536;-60
2024/04/08 06:19:47;;;;;;;7.97;2.38;;;19.60;54.80;;;;;;5482533;26;20090;-60
2024/04/08 06:22:14;;;;;;;8.85;2.60;;;19.40;55.30;;;;;;5472357;26;20513;-59
2024/04/08 06:24:42;;;;;;;10.38;2.95;;;19.40;55.40;;;;;;5479651;26;20058;-61
2024/04/08 06:27:08;;;;;;;10.88;2.42;;;19.20;55.60;;;;;;5483662;26;20067;-60
2024/04/08 06:29:35;;;;;;;11.38;2.50;;;19.20;55.80;;;;;;5479064;26;20066;-60
2024/04/08 06:32:01;;;;;;;12.65;2.72;;;19.10;56.00;;;;;;5481609;26;20600;-60
2024/04/08 06:34:28;;;;;;;11.60;2.85;;;19.00;55.70;;;;;;5483210;26;20066;-60
2024/04/08 06:36:54;;;;;;;11.95;2.95;;;19.00;56.00;;;;;;5479953;26;20097;-59
2024/04/08 06:39:21;;;;;;;8.40;2.33;;;19.10;55.10;;;;;;5479821;26;20159;-61
2024/04/08 06:41:48;;;;;;;8.38;2.38;;;18.90;55.50;;;;;;5475528;26;20070;-60
2024/04/08 06:44:15;;;;;;;16.50;2.78;;;18.90;55.10;;;;;;5482790;26;20067;-59
2024/04/08 06:46:42;;;;;;;7.05;2.10;;;18.90;55.40;;;;;;5482256;26;20089;-60
2024/04/08 06:49:09;;;;;;;12.23;2.45;;;18.80;55.30;;;;;;5481931;26;20400;-59
2024/04/08 06:51:36;;;;;;;6.35;2.20;;;18.70;55.90;;;;;;5481762;26;20158;-60
2024/04/08 06:54:02;;;;;;;5.15;2.10;;;18.60;56.60;;;;;;5478595;26;20070;-60
2024/04/08 06:56:29;;;;;;;11.40;2.72;;;18.40;57.00;;;;;;5482745;26;20075;-61
2024/04/08 06:58:55;;;;;;;6.43;2.40;;;18.40;57.20;;;;;;5475492;26;20089;-59
2024/04/08 07:01:22;;;;;;;7.97;2.38;;;18.30;57.80;;;;;;5476470;26;21622;-60
2024/04/08 07:03:48;;;;;;;10.57;2.10;;;18.40;57.40;;;;;;5478227;26;20074;-60
2024/04/08 07:06:16;;;;;;;10.30;2.10;;;18.30;57.80;;;;;;5482689;26;20089;-61
2024/04/08 07:08:44;;;;;;;5.88;2.17;;;18.30;57.80;;;;;;5480531;26;20081;-60
2024/04/08 07:11:10;;;;;;;10.23;2.33;;;18.30;57.80;;;;;;5479245;26;20067;-60
2024/04/08 07:13:38;;;;;;;5.70;2.03;;;18.20;57.10;;;;;;5475903;26;20063;-60
2024/04/08 07:16:05;;;;;;;7.57;2.50;;;18.10;57.00;;;;;;5480750;26;20074;-58
2024/04/08 07:18:31;;;;;;;9.13;2.28;;;18.10;56.70;;;;;;5479295;26;20088;-59
2024/04/08 07:20:58;;;;;;;7.93;2.40;;;18.00;56.40;;;;;;5481328;26;20062;-59
2024/04/08 07:23:24;;;;;;;10.60;2.40;;;18.00;56.30;;;;;;5463381;26;20090;-60
2024/04/08 07:25:51;;;;;;;12.05;2.78;;;17.90;56.40;;;;;;5478553;26;20059;-60
2024/04/08 07:28:18;;;;;;;15.25;2.90;;;17.90;56.60;;;;;;5480680;26;20111;-62
2024/04/08 07:30:44;;;;;;;7.35;2.33;;;17.80;56.60;;;;;;5476817;26;20181;-59
2024/04/08 07:33:11;;;;;;;8.68;1.90;;;17.80;56.80;;;;;;5481580;26;20067;-60
2024/04/08 07:35:37;;;;;;;13.95;2.40;;;17.80;57.40;;;;;;5480496;26;20063;-60
2024/04/08 07:38:04;;;;;;;14.45;2.45;;;17.80;57.30;;;;;;5482629;26;20084;-59
2024/04/08 07:40:31;;;;;;;7.32;2.40;;;17.70;57.40;;;;;;5448703;26;20496;-59
2024/04/08 07:42:57;;;;;;;7.10;2.05;;;17.70;57.50;;;;;;5482263;26;20608;-59
2024/04/08 07:45:24;;;;;;;11.55;2.92;;;17.60;57.70;;;;;;5479763;26;20071;-58
2024/04/08 07:47:52;;;;;;;12.15;2.80;;;17.30;58.90;;;;;;5482722;26;20464;-59
2024/04/08 07:50:19;;;;;;;9.77;2.67;;;17.20;59.50;;;;;;5483736;26;20098;-59
2024/04/08 07:52:46;;;;;;;10.02;2.88;;;17.20;59.60;;;;;;5482293;26;20078;-60
2024/04/08 07:55:13;;;;;;;11.65;3.00;;;17.00;60.00;;;;;;5482324;26;20197;-60
2024/04/08 07:57:41;;;;;;;7.25;2.53;;;16.90;60.00;;;;;;5483626;26;20097;-60
2024/04/08 08:00:08;;;;;;;9.40;2.60;;;16.90;59.80;;;;;;5481536;26;20441;-60
2024/04/08 08:02:35;;;;;;;6.03;2.28;;;17.00;60.00;;;;;;5481189;26;21175;-59
2024/04/08 08:05:01;;;;;;;8.23;2.90;;;17.00;59.70;;;;;;5481068;26;20063;-59
2024/04/08 08:07:28;;;;;;;6.80;2.45;;;16.90;59.80;;;;;;5477336;26;20074;-60
2024/04/08 08:09:54;;;;;;;7.05;2.42;;;16.90;59.50;;;;;;5479225;26;20098;-59
2024/04/08 08:12:21;;;;;;;10.23;3.33;;;16.80;59.60;;;;;;5478861;26;20565;-60
2024/04/08 08:14:47;;;;;;;12.45;3.08;;;16.70;59.80;;;;;;5475574;26;20150;-60
2024/04/08 08:17:13;;;;;;;8.02;2.65;;;16.70;59.70;;;;;;5482370;26;20083;-59
2024/04/08 08:19:40;;;;;;;12.18;2.88;;;16.60;59.90;;;;;;5481387;26;20063;-58
2024/04/08 08:22:07;;;;;;;13.05;2.85;;;16.50;60.00;;;;;;5478390;26;20067;-58
2024/04/08 08:24:35;;;;;;;9.02;3.03;;;16.40;60.00;;;;;;5479383;26;20151;-58
2024/04/08 08:27:01;;;;;;;8.50;2.42;;;16.40;59.60;;;;;;5475375;26;20090;-59
2024/04/08 08:29:28;;;;;;;6.80;2.25;;;16.50;58.90;;;;;;5476587;26;20419;-59
2024/04/08 08:31:54;;;;;;;9.63;2.45;;;16.50;56.80;;;;;;5484023;26;20064;-60
2024/04/08 08:34:20;;;;;;;10.68;2.25;;;16.60;57.20;;;;;;5482050;26;20093;-59
2024/04/08 08:36:49;;;;;;;3.95;1.92;;;16.60;56.90;;;;;;5481299;26;20063;-60
2024/04/08 08:39:15;;;;;;;8.32;2.47;;;16.60;56.60;;;;;;5478418;26;20063;-59
2024/04/08 08:41:43;;;;;;;10.32;2.22;;;16.60;56.20;;;;;;5481517;26;20075;-59
2024/04/08 08:44:10;;;;;;;11.60;1.98;;;16.60;55.40;;;;;;5478678;26;20147;-59
2024/04/08 08:46:36;;;;;;;7.55;2.15;;;16.70;55.00;;;;;;5478928;26;20089;-60
2024/04/08 08:49:05;;;;;;;5.70;2.00;;;16.70;54.40;;;;;;5480060;26;20086;-59
2024/04/08 08:51:32;;;;;;;7.55;2.03;;;16.70;53.90;;;;;;5484989;26;20102;-59
2024/04/08 08:53:59;;;;;;;12.50;2.20;;;16.70;53.60;;;;;;5482009;26;20079;-60
2024/04/08 08:56:28;;;;;;;4.78;1.88;;;16.70;53.50;;;;;;5480900;26;20508;-59
2024/04/08 08:58:56;;;;;;;6.03;2.10;;;16.70;53.30;;;;;;5481881;26;20649;-60
2024/04/08 09:01:22;;;;;;;5.00;2.28;;;16.60;53.10;;;;;;5482071;26;20461;-59
2024/04/08 09:03:51;;;;;;;6.72;1.77;;;16.60;52.90;;;;;;5483074;26;20088;-59
2024/04/08 09:06:17;;;;;;;5.28;1.83;;;16.60;52.50;;;;;;5482755;26;20093;-58
2024/04/08 09:08:44;;;;;;;6.90;2.10;;;16.60;52.50;;;;;;5483507;26;20093;-59
2024/04/08 09:11:10;;;;;;;7.00;2.20;;;16.50;52.30;;;;;;5483048;26;20090;-59
2024/04/08 09:13:37;;;;;;;6.18;1.98;;;16.50;52.50;;;;;;5479126;26;20067;-59
2024/04/08 09:16:04;;;;;;;5.15;2.13;;;16.50;53.20;;;;;;5476756;26;20074;-59
2024/04/08 09:18:30;;;;;;;7.63;2.33;;;16.40;53.40;;;;;;5485490;26;20441;-59
2024/04/08 09:20:58;;;;;;;8.35;2.03;;;16.40;53.30;;;;;;5483312;26;20447;-60
2024/04/08 09:23:25;;;;;;;5.25;1.90;;;16.30;53.40;;;;;;5483403;26;20520;-60
2024/04/08 09:25:52;;;;;;;8.93;2.60;;;16.20;53.50;;;;;;5482743;26;20485;-60
2024/04/08 09:28:18;;;;;;;5.25;1.70;;;16.10;52.90;;;;;;5484206;26;20063;-59
2024/04/08 09:30:44;;;;;;;7.00;2.20;;;16.00;52.60;;;;;;5480494;26;20079;-59
2024/04/08 09:33:13;;;;;;;10.73;2.20;;;16.00;52.10;;;;;;5480029;26;20210;-59
2024/04/08 09:35:43;;;;;;;5.72;2.10;;;16.00;51.70;;;;;;5479989;26;20066;-60
2024/04/08 09:38:12;;;;;;;7.63;2.20;;;16.00;50.90;;;;;;5482620;26;20543;-59
2024/04/08 09:40:39;;;;;;;9.15;2.45;;;15.90;50.90;;;;;;5482492;26;20119;-59
2024/04/08 09:43:07;;;;;;;11.77;2.40;;;15.90;50.80;;;;;;5480281;26;20115;-59
2024/04/08 09:45:36;;;;;;;6.93;2.25;;;15.80;50.60;;;;;;5482590;26;20536;-59
2024/04/08 09:48:03;;;;;;;9.50;2.30;;;15.80;50.40;;;;;;5481478;26;20097;-59
2024/04/08 09:50:32;;;;;;;4.53;1.95;;;15.90;49.60;;;;;;5478595;26;20066;-60
2024/04/08 09:52:58;;;;;;;8.93;2.08;;;15.90;48.90;;;;;;5483582;26;20114;-59
2024/04/08 09:55:29;;;;;;;7.25;2.05;;;15.90;48.60;;;;;;5483425;26;20067;-59
2024/04/08 09:58:00;;;;;;;8.82;2.35;;;15.90;48.60;;;;;;5480388;26;20166;-59
2024/04/08 10:00:31;;;;;;;6.38;1.98;;;15.90;47.70;;;;;;5472689;26;20155;-59
2024/04/08 10:03:04;;;;;;;6.30;2.40;;;15.90;47.50;;;;;;5478566;26;20160;-60
2024/04/08 10:05:31;;;;;;;10.02;2.20;;;15.90;47.20;;;;;;5481642;26;20071;-60
2024/04/08 10:07:59;;;;;;;7.50;2.33;;;15.80;48.00;;;;;;5484226;26;20067;-59
2024/04/08 10:10:26;;;;;;;6.05;2.63;;;15.70;48.50;;;;;;5482941;26;20562;-60
2024/04/08 10:12:57;;;;;;;7.78;2.80;;;15.70;48.50;;;;;;5482231;26;20063;-59
2024/04/08 10:15:31;;;;;;;7.43;2.38;;;15.70;48.30;;;;;;5482244;26;20111;-59
2024/04/08 10:17:58;;;;;;;7.38;2.50;;;15.70;48.00;;;;;;5484749;26;20066;-60
2024/04/08 10:20:25;;;;;;;10.90;2.13;;;15.60;47.90;;;;;;5482656;26;20090;-60
2024/04/08 10:22:52;;;;;;;5.43;2.20;;;15.60;48.50;;;;;;5479703;26;20063;-59
2024/04/08 10:25:42;;;;;;;9.23;2.80;;;15.40;49.40;;;;;;5480737;26;20094;-58
2024/04/08 10:28:18;;;;;;;7.97;2.50;;;15.30;49.80;;;;;;5482049;26;20067;-59
2024/04/08 10:30:48;;;;;;;8.45;2.78;;;15.20;50.40;;;;;;5475183;26;20063;-60
2024/04/08 10:33:15;;;;;;;8.68;2.25;;;15.10;50.90;;;;;;5482353;26;20194;-59
2024/04/08 10:35:42;;;;;;;7.82;2.63;;;15.00;51.50;;;;;;5483771;26;20138;-60
2024/04/08 10:38:08;;;;;;;5.78;2.15;;;14.90;51.50;;;;;;5480870;26;20067;-59
2024/04/08 10:40:36;;;;;;;8.63;2.50;;;14.80;51.60;;;;;;5482501;26;20094;-60
2024/04/08 10:43:03;;;;;;;9.75;2.28;;;14.80;51.50;;;;;;5484023;26;20200;-59
2024/04/08 10:45:30;;;;;;;5.88;2.15;;;14.80;51.50;;;;;;5473159;26;20070;-59
2024/04/08 10:48:00;;;;;;;7.90;2.38;;;14.70;50.80;;;;;;5484170;26;20093;-59
2024/04/08 10:50:30;;;;;;;7.80;2.35;;;14.80;50.20;;;;;;5482052;26;20115;-58
2024/04/08 10:52:57;;;;;;;8.88;2.10;;;14.80;50.00;;;;;;5478973;26;20545;-59
2024/04/08 10:55:24;;;;;;;7.68;2.50;;;14.70;49.90;;;;;;5477387;26;20063;-59
2024/04/08 10:57:50;;;;;;;10.40;2.50;;;14.70;50.40;;;;;;5480334;26;20098;-59
2024/04/08 11:00:17;;;;;;;8.23;2.53;;;14.60;50.50;;;;;;5478352;26;20086;-58
2024/04/08 11:02:43;;;;;;;7.00;2.33;;;14.60;50.60;;;;;;5480820;26;20089;-59
2024/04/08 11:05:14;;;;;;;5.95;2.15;;;14.60;50.50;;;;;;5481403;26;20163;-59
2024/04/08 11:07:41;;;;;;;5.32;2.15;;;14.60;50.80;;;;;;5479710;26;20443;-58
2024/04/08 11:10:15;;;;;;;10.50;2.95;;;14.50;51.10;;;;;;5481195;26;20079;-59
2024/04/08 11:12:42;;;;;;;12.35;3.00;;;14.40;51.70;;;;;;5479762;26;20110;-58
2024/04/08 11:15:11;;;;;;;8.35;2.42;;;14.40;52.20;;;;;;5474858;26;20090;-59
2024/04/08 11:17:38;;;;;;;8.15;2.80;;;14.30;52.50;;;;;;5472890;26;20066;-59
2024/04/08 11:20:08;;;;;;;7.43;2.80;;;14.20;52.90;;;;;;5480106;26;20140;-59
2024/04/08 11:22:35;;;;;;;7.85;2.55;;;14.10;53.30;;;;;;5480135;26;20089;-59
2024/04/08 11:25:03;;;;;;;8.15;2.58;;;14.10;53.50;;;;;;5481789;26;20094;-59
2024/04/08 11:27:29;;;;;;;7.28;2.50;;;14.10;53.70;;;;;;5479808;26;20115;-59
2024/04/08 11:29:55;;;;;;;6.55;2.58;;;14.00;53.10;;;;;;5482932;26;20155;-59
2024/04/08 11:32:23;;;;;;;7.97;2.55;;;14.10;53.10;;;;;;5479049;26;20063;-59
2024/04/08 11:34:50;;;;;;;9.43;2.28;;;14.10;51.80;;;;;;5482364;26;20063;-58
2024/04/08 11:37:17;;;;;;;10.73;2.67;;;14.10;50.90;;;;;;5478246;26;20070;-60
2024/04/08 11:39:44;;;;;;;6.85;1.85;;;14.10;50.60;;;;;;5483169;26;20115;-60
2024/04/08 11:42:12;;;;;;;6.18;2.08;;;14.10;50.40;;;;;;5479182;26;20094;-60
2024/04/08 11:44:43;;;;;;;8.88;2.10;;;14.00;50.50;;;;;;5476607;26;20067;-60
2024/04/08 11:47:17;;;;;;;5.30;2.05;;;14.00;50.50;;;;;;5472248;26;20103;-61
2024/04/08 11:49:44;;;;;;;12.43;2.40;;;14.00;50.40;;;;;;5478710;26;20204;-60
2024/04/08 11:52:12;;;;;;;5.93;2.10;;;13.90;49.90;;;;;;5482077;26;20478;-60
2024/04/08 11:54:42;;;;;;;4.47;1.80;;;14.00;50.00;;;;;;5479361;26;20090;-60
2024/04/08 11:57:09;;;;;;;4.35;1.80;;;14.00;49.50;;;;;;5481552;26;20074;-60
2024/04/08 11:59:35;;;;;;;6.00;2.00;;;14.00;49.30;;;;;;5478923;26;20557;-60
2024/04/08 12:02:04;;;;;;;7.15;2.05;;;14.00;48.70;;;;;;5475861;26;20078;-60
2024/04/08 12:04:33;;;;;;;5.95;1.88;;;14.10;48.50;;;;;;5480916;26;20569;-61
2024/04/08 12:07:01;;;;;;;5.10;1.80;;;14.10;48.40;;;;;;5478102;26;20098;-60
2024/04/08 12:09:28;;;;;;;4.53;2.05;;;14.00;48.40;;;;;;5482348;26;20094;-60
2024/04/08 12:11:54;;;;;;;7.40;2.15;;;14.00;48.70;;;;;;5482369;26;20067;-59
2024/04/08 12:14:21;;;;;;;16.20;2.13;;;13.90;48.80;;;;;;5478083;26;20154;-59
2024/04/08 12:16:48;;;;;;;6.38;2.03;;;13.80;49.20;;;;;;5480514;26;20124;-60
2024/04/08 12:19:14;;;;;;;7.07;2.40;;;13.80;49.40;;;;;;5479355;26;20119;-60
2024/04/08 12:21:40;;;;;;;;;;;13.70;49.30;;;;;;5483219;26;20063;-60
2024/04/08 12:24:07;;;;;;;4.53;1.98;;;13.70;49.00;;;;;;5480870;26;19993;-60
2024/04/08 12:26:34;;;;;;;6.93;1.75;;;13.60;48.90;;;;;;5478077;26;20058;-60
2024/04/08 12:29:00;;;;;;;8.73;2.00;;;13.70;48.10;;;;;;5475125;26;20070;-60
2024/04/08 12:31:27;;;;;;;5.55;1.65;;;13.60;47.80;;;;;;5477456;26;20070;-60
2024/04/08 12:33:53;;;;;;;6.63;2.03;;;13.60;47.70;;;;;;5473446;26;20059;-61
2024/04/08 12:36:20;;;;;;;7.15;2.10;;;13.50;47.50;;;;;;5478404;26;20400;-61
2024/04/08 12:38:46;;;;;;;6.80;1.65;;;13.50;46.70;;;;;;5480673;26;20107;-60
2024/04/08 12:41:12;;;;;;;7.82;1.80;;;13.50;46.10;;;;;;5481839;26;20093;-60
2024/04/08 12:43:41;;;;;;;;;;;13.50;45.80;;;;;;5481313;26;20097;-60
2024/04/08 12:46:08;;;;;;;5.35;1.92;;;13.50;45.30;;;;;;5478825;26;19985;-60